This is the latest recevied weather packets stored in our database for station/object F1ZFG-13. If no packets are shown the sender has not sent any weather packets the latest 10 day(s).
| Time | Temp. | Humidity | Pressure | Rain* | Wind** | Luminosity | Snow |
|---|---|---|---|---|---|---|---|
| 1777882664 | 10.56° C | 92% | 1015 hPa | 0 mm | - | - | - |
| 1777879349 | 10° C | 90% | 1014.7 hPa | 0 mm | - | - | - |
| 1777876458 | 10° C | 90% | 1014.4 hPa | 0.25 mm | - | - | - |
| 1777873371 | 10.56° C | 87% | 1014.4 hPa | 0.25 mm | - | - | - |
| 1777870128 | 11.11° C | 86% | 1014.7 hPa | 0.76 mm | - | - | - |
| 1777866863 | 11.67° C | 81% | 1014.6 hPa | 0.25 mm | - | - | - |
| 1777863779 | 11.67° C | 81% | 1014.6 hPa | 0.25 mm | - | - | - |
| 1777860349 | 12.22° C | 73% | 1014.4 hPa | 0 mm | - | - | - |
| 1777857077 | 12.22° C | 70% | 1014.4 hPa | 0 mm | - | - | - |
| 1777854162 | 11.67° C | 68% | 1014.9 hPa | 0 mm | - | - | - |
| 1777850713 | 12.22° C | 66% | 1014.7 hPa | 0 mm | - | - | - |
| 1777847804 | 12.78° C | 61% | 1014.6 hPa | 0 mm | - | - | - |
| 1777844619 | 13.33° C | 56% | 1014.9 hPa | 0 mm | - | - | - |
| 1777841519 | 14.44° C | 50% | 1014.7 hPa | 0 mm | - | - | - |
| 1777837971 | 15.56° C | 44% | 1014.3 hPa | 0 mm | - | - | - |
| 1777834960 | 16.11° C | 36% | 1013.8 hPa | 0 mm | - | - | - |
| 1777831853 | 17.78° C | 31% | 1013.7 hPa | 0 mm | - | - | - |
| 1777828411 | 18.33° C | 32% | 1013.4 hPa | 0 mm | - | - | - |
| 1777825178 | 18.89° C | 30% | 1013.6 hPa | 0 mm | - | - | - |
| 1777822114 | 18.89° C | 34% | 1014.3 hPa | 0 mm | - | - | - |
| 1777818707 | 16.67° C | 47% | 1015.6 hPa | 0 mm | - | - | - |
| 1777815754 | 15.56° C | 44% | 1016.5 hPa | 0 mm | - | - | - |
| 1777812192 | 16.11° C | 54% | 1016.2 hPa | 0 mm | - | - | - |
| 1777808743 | 14.44° C | 59% | 1017.2 hPa | 0 mm | - | - | - |
| 1777805605 | 16.11° C | 44% | 1017.3 hPa | 0 mm | - | - | - |
* Rain latest hour (hover to see other rain measurements)
** Current wind speed in m/s (hover to see current wind gust speed)